createdAt,value
2022-10-18T00:00:17.272Z,6.10
2022-10-18T00:02:43.841Z,6.50
2022-10-18T00:05:10.362Z,5.30
2022-10-18T00:07:36.915Z,5.23
2022-10-18T00:10:05.240Z,5.13
2022-10-18T00:12:36.726Z,4.10
2022-10-18T00:15:05.892Z,4.83
2022-10-18T00:17:38.053Z,5.00
2022-10-18T00:20:06.285Z,4.40
2022-10-18T00:22:35.553Z,3.90
2022-10-18T00:25:02.097Z,4.80
2022-10-18T00:27:30.242Z,4.20
2022-10-18T00:29:57.460Z,3.63
2022-10-18T00:32:24.411Z,4.10
2022-10-18T00:34:50.978Z,4.80
2022-10-18T00:37:18.533Z,3.80
2022-10-18T00:39:45.628Z,4.90
2022-10-18T00:42:17.144Z,4.63
2022-10-18T00:44:43.651Z,3.80
2022-10-18T00:47:12.901Z,4.67
2022-10-18T00:49:45.914Z,5.00
2022-10-18T00:52:27.267Z,5.23
2022-10-18T00:54:55.773Z,5.00
2022-10-18T00:57:22.564Z,4.57
2022-10-18T00:59:49.203Z,4.00
2022-10-18T01:02:18.313Z,4.50
2022-10-18T01:04:48.549Z,3.97
2022-10-18T01:07:27.450Z,3.87
2022-10-18T01:10:38.845Z,3.90
2022-10-18T01:13:29.915Z,2.97
2022-10-18T01:16:30.278Z,3.57
2022-10-18T01:19:19.663Z,3.63
2022-10-18T01:21:59.670Z,3.37
2022-10-18T01:24:36.577Z,3.00
2022-10-18T01:27:12.246Z,4.37
2022-10-18T01:30:12.244Z,3.07
2022-10-18T01:32:50.677Z,3.10
2022-10-18T01:35:22.466Z,3.13
2022-10-18T01:37:50.974Z,4.43
2022-10-18T01:40:22.010Z,3.23
2022-10-18T01:42:49.694Z,3.30
2022-10-18T01:45:17.022Z,4.17
2022-10-18T01:47:45.568Z,4.20
2022-10-18T01:50:12.785Z,3.50
2022-10-18T01:52:50.526Z,3.10
2022-10-18T01:55:18.417Z,3.13
2022-10-18T01:58:16.885Z,3.60
2022-10-18T02:00:44.449Z,3.43
2022-10-18T02:03:22.569Z,3.93
2022-10-18T02:05:59.897Z,3.07
2022-10-18T02:08:42.762Z,3.90
2022-10-18T02:11:13.025Z,3.60
2022-10-18T02:14:00.356Z,3.30
2022-10-18T02:16:35.943Z,3.53
2022-10-18T02:19:10.639Z,3.40
2022-10-18T02:21:40.846Z,3.50
2022-10-18T02:24:08.585Z,3.70
2022-10-18T02:26:35.661Z,3.27
2022-10-18T02:29:02.461Z,3.47
2022-10-18T02:31:45.693Z,3.67
2022-10-18T02:34:20.235Z,3.30
2022-10-18T02:36:52.891Z,3.60
2022-10-18T02:39:28.354Z,3.07
2022-10-18T02:41:56.685Z,3.87
2022-10-18T02:44:23.428Z,3.10
2022-10-18T02:46:50.008Z,3.17
2022-10-18T02:49:16.649Z,2.70
2022-10-18T02:51:43.192Z,3.97
2022-10-18T02:54:10.167Z,3.30
2022-10-18T02:56:36.651Z,3.00
2022-10-18T02:59:04.976Z,3.23
2022-10-18T03:01:33.047Z,3.50
2022-10-18T03:03:59.598Z,3.30
2022-10-18T03:06:26.095Z,3.20
2022-10-18T03:08:52.602Z,3.90
2022-10-18T03:11:19.160Z,3.17
2022-10-18T03:13:45.701Z,3.50
2022-10-18T03:16:12.809Z,3.87
2022-10-18T03:18:39.308Z,3.40
2022-10-18T03:21:07.209Z,3.63
2022-10-18T03:23:34.326Z,3.33
2022-10-18T03:26:01.386Z,3.20
2022-10-18T03:28:28.095Z,3.57
2022-10-18T03:31:00.710Z,3.80
2022-10-18T03:33:27.282Z,3.30
2022-10-18T03:35:53.897Z,3.10
2022-10-18T03:38:20.487Z,3.57
2022-10-18T03:40:47.020Z,3.53
2022-10-18T03:43:13.617Z,4.10
2022-10-18T03:45:40.600Z,3.17
2022-10-18T03:48:07.286Z,3.23
2022-10-18T03:50:34.013Z,3.30
2022-10-18T03:53:00.538Z,2.63
2022-10-18T03:55:27.402Z,3.57
2022-10-18T03:57:54.019Z,2.50
2022-10-18T04:00:20.695Z,2.97
2022-10-18T04:02:50.704Z,3.60
2022-10-18T04:05:20.195Z,3.10
2022-10-18T04:07:46.775Z,3.77
2022-10-18T04:10:13.312Z,3.50
2022-10-18T04:12:39.912Z,3.40
2022-10-18T04:15:07.071Z,3.10
2022-10-18T04:17:34.478Z,3.23
2022-10-18T04:20:01.208Z,2.87
2022-10-18T04:22:27.769Z,2.87
2022-10-18T04:24:54.327Z,3.80
2022-10-18T04:27:20.828Z,3.20
2022-10-18T04:29:47.358Z,3.27
2022-10-18T04:32:13.883Z,3.00
2022-10-18T04:34:40.488Z,3.60
2022-10-18T04:37:07.072Z,2.80
2022-10-18T04:39:33.551Z,2.80
2022-10-18T04:42:00.053Z,3.17
2022-10-18T04:44:26.655Z,2.80
2022-10-18T04:46:53.170Z,2.87
2022-10-18T04:49:20.198Z,3.50
2022-10-18T04:51:46.749Z,2.73
2022-10-18T04:54:13.284Z,2.50
2022-10-18T04:56:39.807Z,2.70
2022-10-18T04:59:06.332Z,2.63
2022-10-18T05:01:32.898Z,3.40
2022-10-18T05:03:59.375Z,3.77
2022-10-18T05:06:25.949Z,2.40
2022-10-18T05:08:52.530Z,3.47
2022-10-18T05:11:19.099Z,3.20
2022-10-18T05:13:47.312Z,3.00
2022-10-18T05:16:16.715Z,3.00
2022-10-18T05:18:43.308Z,3.60
2022-10-18T05:21:10.164Z,3.57
2022-10-18T05:23:36.673Z,3.67
2022-10-18T05:26:05.143Z,3.47
2022-10-18T05:28:40.821Z,3.33
2022-10-18T05:31:09.883Z,2.80
2022-10-18T05:33:37.688Z,2.83
2022-10-18T05:36:04.597Z,2.87
2022-10-18T05:38:31.417Z,3.23
2022-10-18T05:40:59.102Z,2.73
2022-10-18T05:43:28.919Z,2.93
2022-10-18T05:45:56.143Z,2.57
2022-10-18T05:48:22.718Z,2.87
2022-10-18T05:50:49.253Z,2.40
2022-10-18T05:53:35.146Z,3.40
2022-10-18T05:56:03.948Z,2.90
2022-10-18T05:58:30.555Z,3.77
2022-10-18T06:01:05.109Z,2.47
2022-10-18T06:03:31.933Z,2.93
2022-10-18T06:06:10.098Z,3.40
2022-10-18T06:08:38.011Z,2.73
2022-10-18T06:11:09.667Z,2.33
2022-10-18T06:13:40.427Z,2.53
2022-10-18T06:16:07.241Z,2.50
2022-10-18T06:18:34.344Z,3.07
2022-10-18T06:21:00.954Z,3.53
2022-10-18T06:23:28.437Z,3.57
2022-10-18T06:26:02.726Z,3.27
2022-10-18T06:28:30.000Z,2.97
2022-10-18T06:30:57.772Z,2.63
2022-10-18T06:33:24.718Z,2.97
2022-10-18T06:35:59.951Z,3.07
2022-10-18T06:38:27.941Z,3.40
2022-10-18T06:40:55.598Z,2.47
2022-10-18T06:43:22.556Z,3.33
2022-10-18T06:45:50.091Z,3.00
2022-10-18T06:50:58.217Z,2.93
2022-10-18T06:53:26.530Z,3.20
2022-10-18T06:55:59.227Z,3.33
2022-10-18T06:58:25.710Z,3.67
2022-10-18T07:00:52.237Z,2.50
2022-10-18T07:03:18.872Z,3.47
2022-10-18T07:05:45.340Z,3.80
2022-10-18T07:08:11.901Z,3.00
2022-10-18T07:10:38.437Z,3.27
2022-10-18T07:13:27.251Z,3.30
2022-10-18T07:16:12.820Z,5.00
2022-10-18T07:18:45.324Z,4.17
2022-10-18T07:21:14.222Z,4.33
2022-10-18T07:23:43.288Z,4.50
2022-10-18T07:26:17.301Z,3.63
2022-10-18T07:28:46.419Z,3.10
2022-10-18T07:31:13.701Z,3.00
2022-10-18T07:33:40.346Z,3.70
2022-10-18T07:36:08.884Z,2.87
2022-10-18T07:38:36.234Z,3.80
2022-10-18T07:41:06.519Z,6.33
2022-10-18T07:43:33.712Z,4.80
2022-10-18T07:46:05.726Z,4.40
2022-10-18T07:48:32.719Z,4.10
2022-10-18T07:51:00.698Z,3.60
2022-10-18T07:53:28.177Z,3.90
2022-10-18T07:56:04.698Z,3.90
2022-10-18T07:58:34.326Z,2.57
2022-10-18T08:01:06.260Z,4.03
2022-10-18T08:03:33.608Z,3.60
2022-10-18T08:06:00.325Z,4.20
2022-10-18T08:08:27.489Z,3.57
2022-10-18T08:10:54.240Z,3.27
2022-10-18T08:13:22.126Z,4.37
2022-10-18T08:15:48.630Z,3.40
2022-10-18T08:18:15.166Z,3.43
2022-10-18T08:20:45.637Z,3.30
2022-10-18T08:23:12.532Z,3.70
2022-10-18T08:25:39.136Z,3.80
2022-10-18T08:28:06.916Z,3.53
2022-10-18T08:30:35.179Z,3.27
2022-10-18T08:33:02.411Z,3.30
2022-10-18T08:35:28.952Z,3.40
2022-10-18T08:37:55.517Z,3.30
2022-10-18T08:40:22.116Z,3.00
2022-10-18T08:43:05.813Z,3.07
2022-10-18T08:45:42.247Z,3.10
2022-10-18T08:48:21.761Z,4.50
2022-10-18T08:50:49.663Z,3.30
2022-10-18T08:53:29.765Z,2.90
2022-10-18T08:56:25.822Z,3.53
2022-10-18T08:58:52.429Z,3.13
2022-10-18T09:01:54.170Z,2.90
2022-10-18T09:04:32.912Z,3.23
2022-10-18T09:07:38.556Z,3.23
2022-10-18T09:10:16.296Z,3.73
2022-10-18T09:12:52.774Z,3.83
2022-10-18T09:15:39.340Z,4.00
2022-10-18T09:18:17.667Z,4.07
2022-10-18T09:20:57.683Z,4.07
2022-10-18T09:23:46.191Z,2.90
2022-10-18T09:26:21.844Z,3.13
2022-10-18T09:29:13.528Z,3.10
2022-10-18T09:31:52.418Z,2.53
2022-10-18T09:34:36.556Z,3.23
2022-10-18T09:37:03.669Z,2.87
2022-10-18T09:39:35.322Z,3.40
2022-10-18T09:42:07.813Z,3.27
2022-10-18T09:44:56.555Z,3.17
2022-10-18T09:50:02.770Z,3.20
2022-10-18T09:52:51.219Z,3.73
2022-10-18T09:55:23.981Z,2.37
2022-10-18T09:57:55.634Z,2.67
2022-10-18T10:00:28.023Z,2.60
2022-10-18T10:02:54.972Z,3.20
2022-10-18T10:05:21.547Z,3.17
2022-10-18T10:07:48.800Z,3.10
2022-10-18T10:10:25.650Z,3.50
2022-10-18T10:13:22.764Z,2.50
2022-10-18T10:15:55.489Z,3.00
2022-10-18T10:18:30.109Z,2.67
2022-10-18T10:21:03.269Z,2.50
2022-10-18T10:23:31.583Z,3.00
2022-10-18T10:26:01.638Z,2.67
2022-10-18T10:28:43.653Z,2.80
2022-10-18T10:31:37.469Z,3.17
2022-10-18T10:34:19.319Z,3.40
2022-10-18T10:36:54.261Z,3.40
2022-10-18T10:39:24.181Z,3.10
2022-10-18T10:42:00.151Z,3.20
2022-10-18T10:44:36.755Z,2.90
2022-10-18T10:47:04.088Z,3.20
2022-10-18T10:49:45.832Z,2.27
2022-10-18T10:52:28.933Z,2.60
2022-10-18T10:55:30.821Z,2.87
2022-10-18T10:57:47.453Z,2.73
2022-10-18T11:00:35.975Z,2.83
2022-10-18T11:03:27.848Z,3.60
2022-10-18T11:05:57.836Z,3.00
2022-10-18T11:08:28.575Z,2.70
2022-10-18T11:11:22.146Z,2.43
2022-10-18T11:14:13.531Z,2.80
2022-10-18T11:16:55.569Z,2.90
2022-10-18T11:19:56.272Z,2.37
2022-10-18T11:22:32.325Z,2.80
2022-10-18T11:24:59.134Z,2.47
2022-10-18T11:27:40.344Z,2.23
2022-10-18T11:30:44.339Z,2.40
2022-10-18T11:33:16.611Z,2.47
2022-10-18T11:35:54.662Z,2.70
2022-10-18T11:38:27.162Z,2.13
2022-10-18T11:41:00.786Z,3.50
2022-10-18T11:44:01.635Z,3.40
2022-10-18T11:46:54.417Z,2.53
2022-10-18T11:49:48.758Z,2.43
2022-10-18T11:52:21.371Z,2.80
2022-10-18T11:55:12.212Z,3.13
2022-10-18T11:58:03.414Z,2.30
2022-10-18T12:00:32.985Z,2.30
2022-10-18T12:03:19.743Z,2.97
2022-10-18T12:05:48.330Z,3.10
2022-10-18T12:08:18.729Z,3.47
2022-10-18T12:11:06.738Z,3.20
2022-10-18T12:13:43.461Z,3.07
2022-10-18T12:16:11.120Z,3.17
2022-10-18T12:18:48.431Z,3.20
2022-10-18T12:21:23.180Z,2.80
2022-10-18T12:24:18.640Z,3.30
2022-10-18T12:26:48.565Z,3.00
2022-10-18T12:29:30.479Z,3.00
2022-10-18T12:32:07.750Z,2.70
2022-10-18T12:34:43.413Z,2.30
2022-10-18T12:37:09.877Z,2.97
2022-10-18T12:39:58.491Z,3.27
2022-10-18T12:42:33.481Z,2.57
2022-10-18T12:45:25.147Z,2.70
2022-10-18T12:47:52.381Z,2.93
2022-10-18T12:50:39.973Z,3.13
2022-10-18T12:53:12.361Z,2.37
2022-10-18T12:58:22.220Z,2.00
2022-10-18T13:00:48.887Z,2.23
2022-10-18T13:03:16.694Z,2.33
2022-10-18T13:05:53.843Z,2.53
2022-10-18T13:08:27.915Z,2.30
2022-10-18T13:11:12.948Z,2.57
2022-10-18T13:13:51.694Z,1.70
2022-10-18T13:16:30.371Z,2.10
2022-10-18T13:19:03.254Z,2.50
2022-10-18T13:21:42.257Z,2.20
2022-10-18T13:24:28.034Z,2.30
2022-10-18T13:26:59.175Z,2.17
2022-10-18T13:29:36.786Z,2.23
2022-10-18T13:32:31.039Z,1.97
2022-10-18T13:34:57.863Z,2.60
2022-10-18T13:37:25.641Z,2.30
2022-10-18T13:40:21.480Z,2.30
2022-10-18T13:42:48.008Z,2.20
2022-10-18T13:45:33.173Z,2.17
2022-10-18T13:48:47.754Z,2.23
2022-10-18T13:51:25.603Z,2.57
2022-10-18T13:53:52.057Z,2.77
2022-10-18T13:56:27.422Z,2.60
2022-10-18T13:59:18.518Z,2.40
2022-10-18T14:02:11.373Z,1.90
2022-10-18T14:05:25.020Z,2.30
2022-10-18T14:08:11.185Z,2.37
2022-10-18T14:11:01.751Z,2.27
2022-10-18T14:14:04.652Z,1.90
2022-10-18T14:16:47.891Z,2.60
2022-10-18T14:19:25.657Z,3.40
2022-10-18T14:22:09.391Z,2.00
2022-10-18T14:24:40.499Z,2.20
2022-10-18T14:27:21.280Z,2.70
2022-10-18T14:29:49.159Z,3.20
2022-10-18T14:32:31.272Z,3.37
2022-10-18T14:35:27.202Z,2.87
2022-10-18T14:37:47.927Z,2.30
2022-10-18T14:40:31.567Z,2.33
2022-10-18T14:43:12.779Z,2.33
2022-10-18T14:45:41.543Z,2.37
2022-10-18T14:48:22.041Z,3.20
2022-10-18T14:51:01.591Z,2.80
2022-10-18T14:53:43.218Z,3.00
2022-10-18T14:56:21.975Z,2.77
2022-10-18T14:58:48.836Z,2.30
2022-10-18T15:01:18.010Z,2.60
2022-10-18T15:03:44.934Z,2.67
2022-10-18T15:06:18.778Z,3.00
2022-10-18T15:08:49.052Z,2.60
2022-10-18T15:11:16.716Z,2.73
2022-10-18T15:13:53.983Z,2.30
2022-10-18T15:16:25.032Z,2.80
2022-10-18T15:19:01.618Z,2.60
2022-10-18T15:21:28.327Z,1.83
2022-10-18T15:23:55.573Z,2.63
2022-10-18T15:26:29.557Z,2.40
2022-10-18T15:29:01.447Z,2.30
2022-10-18T15:31:37.144Z,1.97
2022-10-18T15:34:25.503Z,2.20
2022-10-18T15:36:54.782Z,1.80
2022-10-18T15:39:24.260Z,2.30
2022-10-18T15:41:55.898Z,2.57
2022-10-18T15:44:46.288Z,2.37
2022-10-18T15:47:13.264Z,3.13
2022-10-18T15:49:46.097Z,2.20
2022-10-18T15:52:21.731Z,2.00
2022-10-18T15:57:20.445Z,3.03
2022-10-18T15:59:57.956Z,2.00
2022-10-18T16:02:24.696Z,2.53
2022-10-18T16:04:51.398Z,2.70
2022-10-18T16:07:17.948Z,2.57
2022-10-18T16:09:44.410Z,2.80
2022-10-18T16:12:10.999Z,2.30
2022-10-18T16:14:37.527Z,3.10
2022-10-18T16:17:06.521Z,3.40
2022-10-18T16:19:34.143Z,2.70
2022-10-18T16:22:06.121Z,2.20
2022-10-18T16:24:33.102Z,2.90
2022-10-18T16:26:59.668Z,3.03
2022-10-18T16:29:28.598Z,2.60
2022-10-18T16:31:58.171Z,3.33
2022-10-18T16:34:27.073Z,3.27
2022-10-18T16:36:53.689Z,3.40
2022-10-18T16:39:21.732Z,3.30
2022-10-18T16:41:48.449Z,3.00
2022-10-18T16:44:16.378Z,3.00
2022-10-18T16:46:43.276Z,4.17
2022-10-18T16:51:54.136Z,2.53
2022-10-18T16:54:20.989Z,2.77
2022-10-18T16:56:49.847Z,3.47
2022-10-18T16:59:31.134Z,3.60
2022-10-18T17:01:57.846Z,4.20
2022-10-18T17:04:24.489Z,4.07
2022-10-18T17:06:52.640Z,3.63
2022-10-18T17:09:19.173Z,4.33
2022-10-18T17:11:45.704Z,3.23
2022-10-18T17:14:12.196Z,3.97
2022-10-18T17:16:46.697Z,4.47
2022-10-18T17:19:17.207Z,4.20
2022-10-18T17:21:43.734Z,3.87
2022-10-18T17:24:10.618Z,3.17
2022-10-18T17:26:37.097Z,4.00
2022-10-18T17:29:05.943Z,3.70
2022-10-18T17:31:32.997Z,3.50
2022-10-18T17:34:01.806Z,4.00
2022-10-18T17:36:30.108Z,3.33
2022-10-18T17:38:57.128Z,3.43
2022-10-18T17:41:23.717Z,4.30
2022-10-18T17:43:50.253Z,3.30
2022-10-18T17:46:17.934Z,4.30
2022-10-18T17:48:44.601Z,3.50
2022-10-18T17:51:13.728Z,3.70
2022-10-18T17:53:41.540Z,4.20
2022-10-18T17:56:08.433Z,3.77
2022-10-18T17:58:35.419Z,3.63
2022-10-18T18:01:10.925Z,3.80
2022-10-18T18:03:37.529Z,4.57
2022-10-18T18:06:22.005Z,3.40
2022-10-18T18:08:49.759Z,3.17
2022-10-18T18:11:17.089Z,4.00
2022-10-18T18:13:43.628Z,3.10
2022-10-18T18:16:14.751Z,3.67
2022-10-18T18:18:41.674Z,3.03
2022-10-18T18:21:08.349Z,3.47
2022-10-18T18:23:34.949Z,3.83
2022-10-18T18:26:01.546Z,4.50
2022-10-18T18:28:28.108Z,3.87
2022-10-18T18:30:54.616Z,3.67
2022-10-18T18:33:21.173Z,4.10
2022-10-18T18:35:58.056Z,3.63
2022-10-18T18:38:25.758Z,4.00
2022-10-18T18:41:12.690Z,4.00
2022-10-18T18:43:41.359Z,4.50
2022-10-18T18:46:08.740Z,4.10
2022-10-18T18:48:36.458Z,3.33
2022-10-18T18:51:04.945Z,3.20
2022-10-18T18:53:34.695Z,3.97
2022-10-18T18:56:09.009Z,4.30
2022-10-18T18:58:37.749Z,4.27
2022-10-18T19:01:13.704Z,4.63
2022-10-18T19:03:40.643Z,4.47
2022-10-18T19:06:09.885Z,4.70
2022-10-18T19:08:38.352Z,5.17
2022-10-18T19:11:09.085Z,5.00
2022-10-18T19:13:36.167Z,5.73
2022-10-18T19:16:20.219Z,5.00
2022-10-18T19:18:55.006Z,4.30
2022-10-18T19:21:23.080Z,5.80
2022-10-18T19:23:50.314Z,5.40
2022-10-18T19:26:27.431Z,4.70
2022-10-18T19:28:54.534Z,5.53
2022-10-18T19:31:21.616Z,4.70
2022-10-18T19:33:58.992Z,4.80
2022-10-18T19:36:27.036Z,5.63
2022-10-18T19:38:53.526Z,5.20
2022-10-18T19:41:20.211Z,5.20
2022-10-18T19:43:46.900Z,3.73
2022-10-18T19:46:13.437Z,7.00
2022-10-18T19:48:39.950Z,4.40
2022-10-18T19:51:09.447Z,5.00
2022-10-18T19:53:41.250Z,4.30
2022-10-18T19:56:08.611Z,4.23
2022-10-18T19:58:36.095Z,4.03
2022-10-18T20:01:02.692Z,4.30
2022-10-18T20:03:30.339Z,3.60
2022-10-18T20:05:58.461Z,4.37
2022-10-18T20:08:25.791Z,4.07
2022-10-18T20:10:52.585Z,5.20
2022-10-18T20:13:19.527Z,3.57
2022-10-18T20:15:51.061Z,4.60
2022-10-18T20:18:19.427Z,6.20
2022-10-18T20:20:48.270Z,4.17
2022-10-18T20:23:16.807Z,3.40
2022-10-18T20:25:54.553Z,4.30
2022-10-18T20:28:21.095Z,4.00
2022-10-18T20:30:47.567Z,4.37
2022-10-18T20:33:14.056Z,4.97
2022-10-18T20:35:40.691Z,5.40
2022-10-18T20:38:07.247Z,4.30
2022-10-18T20:40:33.763Z,4.10
2022-10-18T20:43:03.710Z,4.03
2022-10-18T20:45:30.649Z,4.10
2022-10-18T20:47:57.161Z,4.97
2022-10-18T20:50:23.743Z,7.30
2022-10-18T20:52:51.326Z,6.17
2022-10-18T20:55:18.790Z,7.57
2022-10-18T20:57:45.700Z,7.90
2022-10-18T21:00:13.037Z,6.27
2022-10-18T21:02:39.529Z,5.40
2022-10-18T21:05:06.195Z,6.10
2022-10-18T21:07:32.818Z,6.27
2022-10-18T21:09:59.472Z,5.60
2022-10-18T21:12:28.766Z,4.97
2022-10-18T21:14:55.698Z,4.40
2022-10-18T21:17:22.186Z,4.87
2022-10-18T21:19:48.765Z,6.10
2022-10-18T21:22:15.309Z,4.60
2022-10-18T21:24:42.485Z,4.90
2022-10-18T21:27:09.027Z,4.97
2022-10-18T21:29:35.564Z,5.40
2022-10-18T21:32:02.712Z,4.57
2022-10-18T21:34:29.234Z,4.53
2022-10-18T21:36:55.835Z,5.70
2022-10-18T21:41:55.555Z,5.00
2022-10-18T21:44:22.220Z,4.63
2022-10-18T21:46:48.882Z,5.13
2022-10-18T21:49:16.299Z,3.87
2022-10-18T21:51:43.371Z,4.20
2022-10-18T21:54:15.957Z,4.47
2022-10-18T21:56:46.260Z,4.50
2022-10-18T21:59:13.526Z,4.07
2022-10-18T22:01:40.728Z,4.20
2022-10-18T22:04:16.964Z,4.77
2022-10-18T22:06:43.512Z,3.53
2022-10-18T22:09:10.234Z,4.00
2022-10-18T22:11:44.410Z,3.80
2022-10-18T22:14:11.374Z,3.33
2022-10-18T22:16:39.930Z,4.00
2022-10-18T22:19:07.149Z,5.50
2022-10-18T22:25:47.841Z,3.30
2022-10-18T22:28:14.594Z,4.00
2022-10-18T22:30:43.210Z,4.07
2022-10-18T22:33:12.342Z,4.27
2022-10-18T22:35:38.898Z,4.40
2022-10-18T22:38:05.465Z,4.40
2022-10-18T22:40:32.026Z,4.00
2022-10-18T22:42:58.578Z,4.30
2022-10-18T22:45:25.162Z,3.77
2022-10-18T22:47:51.751Z,4.17
2022-10-18T22:50:19.329Z,4.50
2022-10-18T22:52:46.884Z,4.20
2022-10-18T22:55:13.424Z,4.90
2022-10-18T22:57:39.965Z,4.90
2022-10-18T23:00:07.163Z,4.03
2022-10-18T23:02:34.083Z,4.97
2022-10-18T23:05:00.892Z,5.13
2022-10-18T23:07:27.520Z,3.47
2022-10-18T23:09:53.977Z,3.27
2022-10-18T23:12:20.512Z,4.40
2022-10-18T23:14:47.003Z,4.67
2022-10-18T23:17:13.542Z,4.23
2022-10-18T23:19:40.223Z,3.60
2022-10-18T23:22:06.747Z,3.80
2022-10-18T23:24:33.276Z,3.70
2022-10-18T23:26:59.816Z,3.60
2022-10-18T23:29:26.329Z,3.10
2022-10-18T23:31:52.845Z,3.50
2022-10-18T23:34:19.406Z,4.00
2022-10-18T23:36:45.903Z,4.77
2022-10-18T23:39:13.578Z,5.20
2022-10-18T23:41:40.081Z,6.40
2022-10-18T23:44:08.945Z,4.67
2022-10-18T23:46:35.481Z,4.53
2022-10-18T23:49:01.978Z,4.30
2022-10-18T23:51:28.750Z,4.23
2022-10-18T23:53:55.559Z,4.17
2022-10-18T23:56:22.330Z,4.83
2022-10-18T23:58:49.236Z,4.33
